sensor_id;sensor_type;location;lat;lon;timestamp;temperature;humidity
15044;DHT22;7619;48.562;8.910;2023-02-23T00:02:17;8.10;1.00
15044;DHT22;7619;48.562;8.910;2023-02-23T00:12:13;8.10;99.90
15044;DHT22;7619;48.562;8.910;2023-02-23T00:14:43;8.20;1.00
15044;DHT22;7619;48.562;8.910;2023-02-23T00:17:12;8.10;99.90
15044;DHT22;7619;48.562;8.910;2023-02-23T00:32:06;7.90;1.00
15044;DHT22;7619;48.562;8.910;2023-02-23T00:37:04;7.90;1.00
15044;DHT22;7619;48.562;8.910;2023-02-23T00:42:03;7.80;1.00
15044;DHT22;7619;48.562;8.910;2023-02-23T01:04:18;7.90;1.00
15044;DHT22;7619;48.562;8.910;2023-02-23T01:09:17;7.90;1.00
15044;DHT22;7619;48.562;8.910;2023-02-23T01:24:10;8.00;52.10
15044;DHT22;7619;48.562;8.910;2023-02-23T01:26:41;8.10;1.00
15044;DHT22;7619;48.562;8.910;2023-02-23T01:31:41;8.10;99.90
15044;DHT22;7619;48.562;8.910;2023-02-23T01:36:41;7.90;99.90
15044;DHT22;7619;48.562;8.910;2023-02-23T01:41:40;7.80;7.60
15044;DHT22;7619;48.562;8.910;2023-02-23T01:52:13;7.70;1.00
15044;DHT22;7619;48.562;8.910;2023-02-23T02:07:12;7.60;99.90
15044;DHT22;7619;48.562;8.910;2023-02-23T02:09:43;7.60;99.90
15044;DHT22;7619;48.562;8.910;2023-02-23T02:12:14;7.60;1.00
15044;DHT22;7619;48.562;8.910;2023-02-23T02:14:45;7.60;99.90
15044;DHT22;7619;48.562;8.910;2023-02-23T02:37:31;7.60;99.90
15044;DHT22;7619;48.562;8.910;2023-02-23T02:40:07;7.60;99.90
15044;DHT22;7619;48.562;8.910;2023-02-23T02:42:56;7.60;99.90
15044;DHT22;7619;48.562;8.910;2023-02-23T02:45:32;7.60;99.90
15044;DHT22;7619;48.562;8.910;2023-02-23T02:53:17;7.60;99.90
15044;DHT22;7619;48.562;8.910;2023-02-23T02:55:47;7.70;99.90
15044;DHT22;7619;48.562;8.910;2023-02-23T03:03:35;7.70;99.90
15044;DHT22;7619;48.562;8.910;2023-02-23T03:06:25;7.70;99.90
15044;DHT22;7619;48.562;8.910;2023-02-23T03:09:18;7.70;99.90
15044;DHT22;7619;48.562;8.910;2023-02-23T03:12:09;7.70;99.90
15044;DHT22;7619;48.562;8.910;2023-02-23T03:15:00;7.70;99.90
15044;DHT22;7619;48.562;8.910;2023-02-23T03:23:26;7.70;99.90
15044;DHT22;7619;48.562;8.910;2023-02-23T03:29:03;7.70;99.90
15044;DHT22;7619;48.562;8.910;2023-02-23T03:31:52;7.70;99.90
15044;DHT22;7619;48.562;8.910;2023-02-23T03:34:44;7.70;99.90
15044;DHT22;7619;48.562;8.910;2023-02-23T03:40:19;7.70;99.90
15044;DHT22;7619;48.562;8.910;2023-02-23T03:43:14;7.70;99.90
15044;DHT22;7619;48.562;8.910;2023-02-23T03:45:57;7.70;99.90
15044;DHT22;7619;48.562;8.910;2023-02-23T03:48:47;7.70;99.90
15044;DHT22;7619;48.562;8.910;2023-02-23T03:51:37;7.70;99.90
15044;DHT22;7619;48.562;8.910;2023-02-23T03:57:14;7.70;99.90
15044;DHT22;7619;48.562;8.910;2023-02-23T04:00:05;7.70;99.90
15044;DHT22;7619;48.562;8.910;2023-02-23T04:02:54;7.60;99.90
15044;DHT22;7619;48.562;8.910;2023-02-23T04:08:31;7.60;99.90
15044;DHT22;7619;48.562;8.910;2023-02-23T04:11:23;7.60;99.90
15044;DHT22;7619;48.562;8.910;2023-02-23T04:16:38;7.50;99.90
15044;DHT22;7619;48.562;8.910;2023-02-23T04:19:07;7.40;99.90
15044;DHT22;7619;48.562;8.910;2023-02-23T04:21:36;7.40;99.90
15044;DHT22;7619;48.562;8.910;2023-02-23T04:24:05;7.30;99.90
15044;DHT22;7619;48.562;8.910;2023-02-23T04:26:34;7.30;99.90
15044;DHT22;7619;48.562;8.910;2023-02-23T04:29:03;7.30;99.90
15044;DHT22;7619;48.562;8.910;2023-02-23T04:31:32;7.40;99.90
15044;DHT22;7619;48.562;8.910;2023-02-23T04:46:25;7.40;99.90
15044;DHT22;7619;48.562;8.910;2023-02-23T04:48:54;7.40;99.90
15044;DHT22;7619;48.562;8.910;2023-02-23T04:51:22;7.40;99.90
15044;DHT22;7619;48.562;8.910;2023-02-23T04:56:21;7.50;99.90
15044;DHT22;7619;48.562;8.910;2023-02-23T04:58:50;7.50;99.90
15044;DHT22;7619;48.562;8.910;2023-02-23T05:03:55;7.50;99.90
15044;DHT22;7619;48.562;8.910;2023-02-23T05:18:44;7.30;99.90
15044;DHT22;7619;48.562;8.910;2023-02-23T05:23:45;7.20;99.90
15044;DHT22;7619;48.562;8.910;2023-02-23T05:31:11;7.30;99.90
15044;DHT22;7619;48.562;8.910;2023-02-23T05:33:40;7.30;99.90
15044;DHT22;7619;48.562;8.910;2023-02-23T05:36:10;7.30;99.90
15044;DHT22;7619;48.562;8.910;2023-02-23T05:38:39;7.30;99.90
15044;DHT22;7619;48.562;8.910;2023-02-23T05:46:18;7.40;99.90
15044;DHT22;7619;48.562;8.910;2023-02-23T05:48:48;7.40;99.90
15044;DHT22;7619;48.562;8.910;2023-02-23T05:53:45;7.50;99.90
15044;DHT22;7619;48.562;8.910;2023-02-23T05:56:16;7.40;99.90
15044;DHT22;7619;48.562;8.910;2023-02-23T06:03:45;7.20;99.90
15044;DHT22;7619;48.562;8.910;2023-02-23T06:06:14;7.30;99.90
15044;DHT22;7619;48.562;8.910;2023-02-23T06:16:08;7.40;99.90
15044;DHT22;7619;48.562;8.910;2023-02-23T06:23:34;7.20;99.90
15044;DHT22;7619;48.562;8.910;2023-02-23T06:26:03;7.20;99.90
15044;DHT22;7619;48.562;8.910;2023-02-23T06:28:32;7.10;99.90
15044;DHT22;7619;48.562;8.910;2023-02-23T06:33:30;7.00;99.90
15044;DHT22;7619;48.562;8.910;2023-02-23T06:38:27;6.90;99.90
15044;DHT22;7619;48.562;8.910;2023-02-23T06:48:20;6.90;99.90
15044;DHT22;7619;48.562;8.910;2023-02-23T06:53:17;7.00;99.90
15044;DHT22;7619;48.562;8.910;2023-02-23T07:03:11;7.00;99.90
15044;DHT22;7619;48.562;8.910;2023-02-23T07:08:08;7.00;99.90
15044;DHT22;7619;48.562;8.910;2023-02-23T07:10:37;7.20;99.90
15044;DHT22;7619;48.562;8.910;2023-02-23T07:15:35;7.20;99.90
15044;DHT22;7619;48.562;8.910;2023-02-23T07:18:04;7.30;99.90
15044;DHT22;7619;48.562;8.910;2023-02-23T07:23:01;7.40;99.90
15044;DHT22;7619;48.562;8.910;2023-02-23T07:25:30;7.40;99.90
15044;DHT22;7619;48.562;8.910;2023-02-23T07:35:23;7.60;99.90
15044;DHT22;7619;48.562;8.910;2023-02-23T07:37:52;7.80;99.90
15044;DHT22;7619;48.562;8.910;2023-02-23T07:40:22;8.00;99.90
15044;DHT22;7619;48.562;8.910;2023-02-23T07:42:52;8.20;99.90
15044;DHT22;7619;48.562;8.910;2023-02-23T07:47:51;8.40;99.90
15044;DHT22;7619;48.562;8.910;2023-02-23T07:50:20;8.40;99.90
15044;DHT22;7619;48.562;8.910;2023-02-23T07:52:50;8.50;99.90
15044;DHT22;7619;48.562;8.910;2023-02-23T07:55:19;8.50;99.90
15044;DHT22;7619;48.562;8.910;2023-02-23T07:57:48;8.80;99.90
15044;DHT22;7619;48.562;8.910;2023-02-23T08:00:18;8.80;99.90
15044;DHT22;7619;48.562;8.910;2023-02-23T08:02:47;8.80;99.90
15044;DHT22;7619;48.562;8.910;2023-02-23T08:05:16;8.80;99.90
15044;DHT22;7619;48.562;8.910;2023-02-23T08:07:45;8.90;99.90
15044;DHT22;7619;48.562;8.910;2023-02-23T08:17:47;9.00;99.90
15044;DHT22;7619;48.562;8.910;2023-02-23T08:20:16;9.00;99.90
15044;DHT22;7619;48.562;8.910;2023-02-23T08:22:45;9.20;99.90
15044;DHT22;7619;48.562;8.910;2023-02-23T08:25:14;9.20;99.90
15044;DHT22;7619;48.562;8.910;2023-02-23T08:37:38;9.90;99.90
15044;DHT22;7619;48.562;8.910;2023-02-23T08:47:36;12.80;99.90
15044;DHT22;7619;48.562;8.910;2023-02-23T08:52:33;12.90;1.00
15044;DHT22;7619;48.562;8.910;2023-02-23T08:55:03;12.60;99.90
15044;DHT22;7619;48.562;8.910;2023-02-23T08:57:33;12.20;1.00
15044;DHT22;7619;48.562;8.910;2023-02-23T09:00:02;11.90;1.00
15044;DHT22;7619;48.562;8.910;2023-02-23T09:05:01;11.90;99.90
15044;DHT22;7619;48.562;8.910;2023-02-23T09:07:30;12.00;99.90
15044;DHT22;7619;48.562;8.910;2023-02-23T09:19:53;12.10;99.90
15044;DHT22;7619;48.562;8.910;2023-02-23T09:39:55;12.70;99.90
15044;DHT22;7619;48.562;8.910;2023-02-23T09:55:14;12.70;1.00
15044;DHT22;7619;48.562;8.910;2023-02-23T09:57:45;12.70;99.90
15044;DHT22;7619;48.562;8.910;2023-02-23T10:03:07;12.90;99.90
15044;DHT22;7619;48.562;8.910;2023-02-23T10:10:41;13.30;1.00
15044;DHT22;7619;48.562;8.910;2023-02-23T10:13:13;13.30;1.00
15044;DHT22;7619;48.562;8.910;2023-02-23T10:15:45;13.10;99.90
15044;DHT22;7619;48.562;8.910;2023-02-23T10:28:20;13.60;27.60
15044;DHT22;7619;48.562;8.910;2023-02-23T10:35:50;13.80;1.00
15044;DHT22;7619;48.562;8.910;2023-02-23T10:48:19;14.50;1.00
15044;DHT22;7619;48.562;8.910;2023-02-23T10:50:48;14.90;1.00
15044;DHT22;7619;48.562;8.910;2023-02-23T11:13:28;15.40;99.90
15044;DHT22;7619;48.562;8.910;2023-02-23T11:18:29;15.30;99.90
15044;DHT22;7619;48.562;8.910;2023-02-23T11:20:58;15.00;99.90
15044;DHT22;7619;48.562;8.910;2023-02-23T11:23:30;15.10;99.90
15044;DHT22;7619;48.562;8.910;2023-02-23T11:26:02;15.00;99.90
15044;DHT22;7619;48.562;8.910;2023-02-23T11:31:03;12.30;99.90
15044;DHT22;7619;48.562;8.910;2023-02-23T11:43:48;14.50;99.90
15044;DHT22;7619;48.562;8.910;2023-02-23T11:46:19;14.50;99.90
15044;DHT22;7619;48.562;8.910;2023-02-23T11:48:51;14.60;99.90
15044;DHT22;7619;48.562;8.910;2023-02-23T11:54:00;14.70;99.90
15044;DHT22;7619;48.562;8.910;2023-02-23T11:59:02;14.70;99.90
15044;DHT22;7619;48.562;8.910;2023-02-23T12:01:40;14.70;99.90
15044;DHT22;7619;48.562;8.910;2023-02-23T12:04:23;14.70;99.90
15044;DHT22;7619;48.562;8.910;2023-02-23T12:07:17;14.60;99.90
15044;DHT22;7619;48.562;8.910;2023-02-23T12:12:04;14.70;99.90
15044;DHT22;7619;48.562;8.910;2023-02-23T12:17:15;14.30;99.90
15044;DHT22;7619;48.562;8.910;2023-02-23T12:24:46;14.10;99.90
15044;DHT22;7619;48.562;8.910;2023-02-23T12:32:28;14.20;99.90
15044;DHT22;7619;48.562;8.910;2023-02-23T12:35:00;14.10;99.90
15044;DHT22;7619;48.562;8.910;2023-02-23T12:37:37;14.10;99.90
15044;DHT22;7619;48.562;8.910;2023-02-23T12:50:25;14.10;99.90
15044;DHT22;7619;48.562;8.910;2023-02-23T12:55:32;14.10;99.90
15044;DHT22;7619;48.562;8.910;2023-02-23T12:58:05;14.00;99.90
15044;DHT22;7619;48.562;8.910;2023-02-23T13:00:44;14.10;99.90
15044;DHT22;7619;48.562;8.910;2023-02-23T13:08:28;14.00;99.90
15044;DHT22;7619;48.562;8.910;2023-02-23T13:28:48;14.10;99.90
15044;DHT22;7619;48.562;8.910;2023-02-23T13:31:24;14.00;99.90
15044;DHT22;7619;48.562;8.910;2023-02-23T13:39:13;13.70;99.90
15044;DHT22;7619;48.562;8.910;2023-02-23T13:41:45;13.50;99.90
15044;DHT22;7619;48.562;8.910;2023-02-23T13:44:18;13.40;99.90
15044;DHT22;7619;48.562;8.910;2023-02-23T13:46:50;13.30;99.90
15044;DHT22;7619;48.562;8.910;2023-02-23T13:51:54;13.40;99.90
15044;DHT22;7619;48.562;8.910;2023-02-23T13:56:57;13.40;99.90
15044;DHT22;7619;48.562;8.910;2023-02-23T14:06:57;13.70;99.90
15044;DHT22;7619;48.562;8.910;2023-02-23T14:09:30;13.90;99.90
15044;DHT22;7619;48.562;8.910;2023-02-23T14:14:45;14.10;99.90
15044;DHT22;7619;48.562;8.910;2023-02-23T14:17:40;14.00;99.90
15044;DHT22;7619;48.562;8.910;2023-02-23T14:23:12;13.80;99.90
15044;DHT22;7619;48.562;8.910;2023-02-23T14:25:46;13.90;99.90
15044;DHT22;7619;48.562;8.910;2023-02-23T14:31:01;14.00;99.90
15044;DHT22;7619;48.562;8.910;2023-02-23T14:33:49;13.60;99.90
15044;DHT22;7619;48.562;8.910;2023-02-23T14:36:36;13.60;99.90
15044;DHT22;7619;48.562;8.910;2023-02-23T14:41:42;13.60;99.90
15044;DHT22;7619;48.562;8.910;2023-02-23T14:44:13;13.60;99.90
15044;DHT22;7619;48.562;8.910;2023-02-23T14:46:53;13.60;99.90
15044;DHT22;7619;48.562;8.910;2023-02-23T14:51:57;13.90;99.90
15044;DHT22;7619;48.562;8.910;2023-02-23T14:54:30;13.80;99.90
15044;DHT22;7619;48.562;8.910;2023-02-23T14:57:02;13.80;99.90
15044;DHT22;7619;48.562;8.910;2023-02-23T15:12:26;13.10;99.90
15044;DHT22;7619;48.562;8.910;2023-02-23T15:14:57;13.10;99.90
15044;DHT22;7619;48.562;8.910;2023-02-23T15:17:29;13.00;99.90
15044;DHT22;7619;48.562;8.910;2023-02-23T15:20:00;13.00;99.90
15044;DHT22;7619;48.562;8.910;2023-02-23T15:22:34;13.20;99.90
15044;DHT22;7619;48.562;8.910;2023-02-23T15:25:10;13.00;99.90
15044;DHT22;7619;48.562;8.910;2023-02-23T15:27:38;12.90;99.90
15044;DHT22;7619;48.562;8.910;2023-02-23T15:32:53;12.60;99.90
15044;DHT22;7619;48.562;8.910;2023-02-23T15:40:18;12.50;99.90
15044;DHT22;7619;48.562;8.910;2023-02-23T15:42:50;12.50;99.90
15044;DHT22;7619;48.562;8.910;2023-02-23T15:50:30;12.20;99.90
15044;DHT22;7619;48.562;8.910;2023-02-23T16:03:04;12.10;99.90
15044;DHT22;7619;48.562;8.910;2023-02-23T16:10:45;12.00;99.90
15044;DHT22;7619;48.562;8.910;2023-02-23T16:20:48;11.70;1.00
15044;DHT22;7619;48.562;8.910;2023-02-23T16:23:25;11.60;1.00
15044;DHT22;7619;48.562;8.910;2023-02-23T16:25:56;11.50;1.00
15044;DHT22;7619;48.562;8.910;2023-02-23T16:28:30;11.40;1.00
15044;DHT22;7619;48.562;8.910;2023-02-23T16:33:30;11.30;1.00
15044;DHT22;7619;48.562;8.910;2023-02-23T16:36:17;11.20;1.00
15044;DHT22;7619;48.562;8.910;2023-02-23T16:38:56;11.20;1.00
15044;DHT22;7619;48.562;8.910;2023-02-23T16:43:57;11.10;1.00
15044;DHT22;7619;48.562;8.910;2023-02-23T16:46:30;11.00;1.00
15044;DHT22;7619;48.562;8.910;2023-02-23T16:49:00;11.00;1.00
15044;DHT22;7619;48.562;8.910;2023-02-23T17:23:42;10.50;1.00
15044;DHT22;7619;48.562;8.910;2023-02-23T17:26:18;10.50;1.00
15044;DHT22;7619;48.562;8.910;2023-02-23T17:28:47;10.50;1.00
15044;DHT22;7619;48.562;8.910;2023-02-23T17:43:42;10.30;99.90
15044;DHT22;7619;48.562;8.910;2023-02-23T17:46:11;10.30;99.90
15044;DHT22;7619;48.562;8.910;2023-02-23T17:53:47;12.40;99.90
15044;DHT22;7619;48.562;8.910;2023-02-23T18:23:49;10.30;99.90
15044;DHT22;7619;48.562;8.910;2023-02-23T18:26:21;10.20;99.90
15044;DHT22;7619;48.562;8.910;2023-02-23T18:33:57;10.20;99.90
15044;DHT22;7619;48.562;8.910;2023-02-23T18:41:27;10.00;99.90
15044;DHT22;7619;48.562;8.910;2023-02-23T18:43:58;9.90;1.00
15044;DHT22;7619;48.562;8.910;2023-02-23T18:53:53;9.90;35.20
15044;DHT22;7619;48.562;8.910;2023-02-23T18:58:52;9.90;99.90
15044;DHT22;7619;48.562;8.910;2023-02-23T19:01:23;9.90;99.90
15044;DHT22;7619;48.562;8.910;2023-02-23T19:06:23;9.90;99.90
15044;DHT22;7619;48.562;8.910;2023-02-23T19:11:23;9.90;99.90
15044;DHT22;7619;48.562;8.910;2023-02-23T19:23:47;9.90;1.00
15044;DHT22;7619;48.562;8.910;2023-02-23T19:26:16;9.80;99.90
15044;DHT22;7619;48.562;8.910;2023-02-23T19:31:15;9.80;1.00
15044;DHT22;7619;48.562;8.910;2023-02-23T19:38:55;9.70;99.90
15044;DHT22;7619;48.562;8.910;2023-02-23T20:06:18;9.10;99.90
15044;DHT22;7619;48.562;8.910;2023-02-23T20:08:48;9.00;1.00
15044;DHT22;7619;48.562;8.910;2023-02-23T20:21:21;8.80;3.20
15044;DHT22;7619;48.562;8.910;2023-02-23T20:33:47;8.90;99.90
15044;DHT22;7619;48.562;8.910;2023-02-23T21:08:34;8.30;1.00
15044;DHT22;7619;48.562;8.910;2023-02-23T21:13:35;8.00;99.90
15044;DHT22;7619;48.562;8.910;2023-02-23T21:18:32;7.90;1.00
15044;DHT22;7619;48.562;8.910;2023-02-23T21:38:23;7.50;99.90
15044;DHT22;7619;48.562;8.910;2023-02-23T21:45:51;7.20;99.90
15044;DHT22;7619;48.562;8.910;2023-02-23T23:15:13;7.30;1.00
15044;DHT22;7619;48.562;8.910;2023-02-23T23:27:42;7.30;99.90
15044;DHT22;7619;48.562;8.910;2023-02-23T23:37:47;7.20;99.90
15044;DHT22;7619;48.562;8.910;2023-02-23T23:45:27;7.00;1.00
15044;DHT22;7619;48.562;8.910;2023-02-23T23:55:30;7.00;99.90
